sensor_id;sensor_type;location;lat;lon;timestamp;P1;durP1;ratioP1;P2;durP2;ratioP2
4432;SDS011;2229;48.708;9.706;2023-07-08T00:00:18;9.70;;;3.53;;
4432;SDS011;2229;48.708;9.706;2023-07-08T00:02:50;5.50;;;2.40;;
4432;SDS011;2229;48.708;9.706;2023-07-08T00:05:21;5.00;;;2.20;;
4432;SDS011;2229;48.708;9.706;2023-07-08T00:07:50;6.10;;;2.43;;
4432;SDS011;2229;48.708;9.706;2023-07-08T00:10:18;3.27;;;1.67;;
4432;SDS011;2229;48.708;9.706;2023-07-08T00:12:48;5.97;;;2.73;;
4432;SDS011;2229;48.708;9.706;2023-07-08T00:15:17;6.33;;;2.70;;
4432;SDS011;2229;48.708;9.706;2023-07-08T00:17:45;5.97;;;2.30;;
4432;SDS011;2229;48.708;9.706;2023-07-08T00:20:16;9.37;;;3.13;;
4432;SDS011;2229;48.708;9.706;2023-07-08T00:22:46;5.90;;;2.40;;
4432;SDS011;2229;48.708;9.706;2023-07-08T00:25:15;5.77;;;3.33;;
4432;SDS011;2229;48.708;9.706;2023-07-08T00:27:44;7.57;;;2.43;;
4432;SDS011;2229;48.708;9.706;2023-07-08T00:30:22;5.90;;;2.70;;
4432;SDS011;2229;48.708;9.706;2023-07-08T00:32:50;4.03;;;2.33;;
4432;SDS011;2229;48.708;9.706;2023-07-08T00:35:26;6.27;;;2.80;;
4432;SDS011;2229;48.708;9.706;2023-07-08T00:37:56;5.60;;;2.33;;
4432;SDS011;2229;48.708;9.706;2023-07-08T00:40:27;5.90;;;2.50;;
4432;SDS011;2229;48.708;9.706;2023-07-08T00:42:55;8.20;;;2.93;;
4432;SDS011;2229;48.708;9.706;2023-07-08T00:45:31;7.67;;;2.80;;
4432;SDS011;2229;48.708;9.706;2023-07-08T00:48:08;6.63;;;2.90;;
4432;SDS011;2229;48.708;9.706;2023-07-08T00:50:45;5.07;;;1.70;;
4432;SDS011;2229;48.708;9.706;2023-07-08T00:55:59;7.80;;;3.53;;
4432;SDS011;2229;48.708;9.706;2023-07-08T00:58:30;7.10;;;3.03;;
4432;SDS011;2229;48.708;9.706;2023-07-08T01:01:01;3.93;;;2.03;;
4432;SDS011;2229;48.708;9.706;2023-07-08T01:03:31;5.70;;;2.63;;
4432;SDS011;2229;48.708;9.706;2023-07-08T01:06:02;6.47;;;2.93;;
4432;SDS011;2229;48.708;9.706;2023-07-08T01:08:31;6.87;;;2.70;;
4432;SDS011;2229;48.708;9.706;2023-07-08T01:11:00;5.73;;;2.77;;
4432;SDS011;2229;48.708;9.706;2023-07-08T01:13:31;4.47;;;2.07;;
4432;SDS011;2229;48.708;9.706;2023-07-08T01:16:01;4.67;;;2.30;;
4432;SDS011;2229;48.708;9.706;2023-07-08T01:18:29;9.13;;;2.40;;
4432;SDS011;2229;48.708;9.706;2023-07-08T01:21:01;4.53;;;2.30;;
4432;SDS011;2229;48.708;9.706;2023-07-08T01:23:35;4.60;;;1.90;;
4432;SDS011;2229;48.708;9.706;2023-07-08T01:26:03;9.63;;;3.50;;
4432;SDS011;2229;48.708;9.706;2023-07-08T01:28:30;7.10;;;2.87;;
4432;SDS011;2229;48.708;9.706;2023-07-08T01:30:58;5.40;;;2.00;;
4432;SDS011;2229;48.708;9.706;2023-07-08T01:33:27;6.47;;;2.80;;
4432;SDS011;2229;48.708;9.706;2023-07-08T01:35:54;4.83;;;2.40;;
4432;SDS011;2229;48.708;9.706;2023-07-08T01:38:23;6.00;;;2.30;;
4432;SDS011;2229;48.708;9.706;2023-07-08T01:40:54;5.53;;;2.90;;
4432;SDS011;2229;48.708;9.706;2023-07-08T01:43:23;5.70;;;2.43;;
4432;SDS011;2229;48.708;9.706;2023-07-08T01:45:50;5.60;;;2.70;;
4432;SDS011;2229;48.708;9.706;2023-07-08T01:48:21;7.50;;;2.83;;
4432;SDS011;2229;48.708;9.706;2023-07-08T01:50:50;4.80;;;2.33;;
4432;SDS011;2229;48.708;9.706;2023-07-08T01:53:27;8.40;;;3.70;;
4432;SDS011;2229;48.708;9.706;2023-07-08T01:55:58;7.47;;;2.83;;
4432;SDS011;2229;48.708;9.706;2023-07-08T01:58:26;5.90;;;2.33;;
4432;SDS011;2229;48.708;9.706;2023-07-08T02:00:54;6.37;;;2.63;;
4432;SDS011;2229;48.708;9.706;2023-07-08T02:03:22;7.37;;;2.50;;
4432;SDS011;2229;48.708;9.706;2023-07-08T02:05:51;6.73;;;2.93;;
4432;SDS011;2229;48.708;9.706;2023-07-08T02:08:19;6.93;;;2.90;;
4432;SDS011;2229;48.708;9.706;2023-07-08T02:10:48;4.83;;;2.13;;
4432;SDS011;2229;48.708;9.706;2023-07-08T02:13:18;7.50;;;2.30;;
4432;SDS011;2229;48.708;9.706;2023-07-08T02:15:47;6.73;;;2.83;;
4432;SDS011;2229;48.708;9.706;2023-07-08T02:18:14;4.67;;;2.37;;
4432;SDS011;2229;48.708;9.706;2023-07-08T02:20:44;5.63;;;2.67;;
4432;SDS011;2229;48.708;9.706;2023-07-08T02:23:13;3.50;;;2.10;;
4432;SDS011;2229;48.708;9.706;2023-07-08T02:25:40;5.87;;;2.20;;
4432;SDS011;2229;48.708;9.706;2023-07-08T02:28:07;6.50;;;2.80;;
4432;SDS011;2229;48.708;9.706;2023-07-08T02:30:36;6.37;;;2.80;;
4432;SDS011;2229;48.708;9.706;2023-07-08T02:33:03;7.13;;;2.60;;
4432;SDS011;2229;48.708;9.706;2023-07-08T02:35:30;7.20;;;2.47;;
4432;SDS011;2229;48.708;9.706;2023-07-08T02:37:57;7.00;;;2.50;;
4432;SDS011;2229;48.708;9.706;2023-07-08T02:40:25;4.30;;;2.00;;
4432;SDS011;2229;48.708;9.706;2023-07-08T02:42:53;7.30;;;2.80;;
4432;SDS011;2229;48.708;9.706;2023-07-08T02:45:20;5.47;;;2.50;;
4432;SDS011;2229;48.708;9.706;2023-07-08T02:47:49;6.47;;;2.80;;
4432;SDS011;2229;48.708;9.706;2023-07-08T02:50:16;7.23;;;2.50;;
4432;SDS011;2229;48.708;9.706;2023-07-08T02:52:44;4.23;;;1.73;;
4432;SDS011;2229;48.708;9.706;2023-07-08T02:55:11;5.90;;;2.40;;
4432;SDS011;2229;48.708;9.706;2023-07-08T02:57:39;5.57;;;2.90;;
4432;SDS011;2229;48.708;9.706;2023-07-08T03:00:07;5.20;;;2.40;;
4432;SDS011;2229;48.708;9.706;2023-07-08T03:02:35;6.60;;;2.70;;
4432;SDS011;2229;48.708;9.706;2023-07-08T03:05:04;4.60;;;2.80;;
4432;SDS011;2229;48.708;9.706;2023-07-08T03:07:32;4.80;;;2.40;;
4432;SDS011;2229;48.708;9.706;2023-07-08T03:09:59;6.53;;;2.50;;
4432;SDS011;2229;48.708;9.706;2023-07-08T03:12:26;5.00;;;2.37;;
4432;SDS011;2229;48.708;9.706;2023-07-08T03:14:53;5.70;;;2.60;;
4432;SDS011;2229;48.708;9.706;2023-07-08T03:17:21;5.30;;;2.60;;
4432;SDS011;2229;48.708;9.706;2023-07-08T03:19:48;8.93;;;3.50;;
4432;SDS011;2229;48.708;9.706;2023-07-08T03:22:17;6.07;;;2.40;;
4432;SDS011;2229;48.708;9.706;2023-07-08T03:24:44;5.90;;;2.70;;
4432;SDS011;2229;48.708;9.706;2023-07-08T03:27:15;5.87;;;2.87;;
4432;SDS011;2229;48.708;9.706;2023-07-08T03:29:44;4.30;;;2.40;;
4432;SDS011;2229;48.708;9.706;2023-07-08T03:32:12;5.37;;;2.60;;
4432;SDS011;2229;48.708;9.706;2023-07-08T03:34:40;6.40;;;2.87;;
4432;SDS011;2229;48.708;9.706;2023-07-08T03:37:08;6.67;;;3.40;;
4432;SDS011;2229;48.708;9.706;2023-07-08T03:39:37;4.97;;;2.60;;
4432;SDS011;2229;48.708;9.706;2023-07-08T03:42:05;5.13;;;2.07;;
4432;SDS011;2229;48.708;9.706;2023-07-08T03:44:32;6.40;;;2.47;;
4432;SDS011;2229;48.708;9.706;2023-07-08T03:46:59;5.97;;;2.23;;
4432;SDS011;2229;48.708;9.706;2023-07-08T03:49:26;6.33;;;2.50;;
4432;SDS011;2229;48.708;9.706;2023-07-08T03:51:55;4.70;;;2.63;;
4432;SDS011;2229;48.708;9.706;2023-07-08T03:54:23;8.00;;;3.00;;
4432;SDS011;2229;48.708;9.706;2023-07-08T03:56:56;5.07;;;3.10;;
4432;SDS011;2229;48.708;9.706;2023-07-08T03:59:25;6.43;;;2.33;;
4432;SDS011;2229;48.708;9.706;2023-07-08T04:01:54;4.07;;;1.80;;
4432;SDS011;2229;48.708;9.706;2023-07-08T04:04:23;7.27;;;2.73;;
4432;SDS011;2229;48.708;9.706;2023-07-08T04:06:51;6.87;;;2.63;;
4432;SDS011;2229;48.708;9.706;2023-07-08T04:09:18;4.50;;;2.03;;
4432;SDS011;2229;48.708;9.706;2023-07-08T04:11:46;7.53;;;2.80;;
4432;SDS011;2229;48.708;9.706;2023-07-08T04:14:14;7.33;;;2.50;;
4432;SDS011;2229;48.708;9.706;2023-07-08T04:16:46;12.70;;;3.03;;
4432;SDS011;2229;48.708;9.706;2023-07-08T04:19:16;5.37;;;2.43;;
4432;SDS011;2229;48.708;9.706;2023-07-08T04:21:44;9.93;;;3.10;;
4432;SDS011;2229;48.708;9.706;2023-07-08T04:24:12;5.30;;;2.80;;
4432;SDS011;2229;48.708;9.706;2023-07-08T04:26:40;6.80;;;3.20;;
4432;SDS011;2229;48.708;9.706;2023-07-08T04:29:11;6.77;;;3.00;;
4432;SDS011;2229;48.708;9.706;2023-07-08T04:31:41;10.90;;;3.07;;
4432;SDS011;2229;48.708;9.706;2023-07-08T04:34:09;6.40;;;2.53;;
4432;SDS011;2229;48.708;9.706;2023-07-08T04:36:36;9.20;;;2.83;;
4432;SDS011;2229;48.708;9.706;2023-07-08T04:39:05;4.67;;;2.30;;
4432;SDS011;2229;48.708;9.706;2023-07-08T04:41:33;9.33;;;3.30;;
4432;SDS011;2229;48.708;9.706;2023-07-08T04:44:05;4.33;;;2.17;;
4432;SDS011;2229;48.708;9.706;2023-07-08T04:46:34;6.53;;;2.50;;
4432;SDS011;2229;48.708;9.706;2023-07-08T04:49:06;6.57;;;2.80;;
4432;SDS011;2229;48.708;9.706;2023-07-08T04:51:34;5.77;;;2.50;;
4432;SDS011;2229;48.708;9.706;2023-07-08T04:54:01;5.00;;;2.50;;
4432;SDS011;2229;48.708;9.706;2023-07-08T04:56:38;5.07;;;2.70;;
4432;SDS011;2229;48.708;9.706;2023-07-08T04:59:07;5.27;;;2.10;;
4432;SDS011;2229;48.708;9.706;2023-07-08T05:01:36;3.80;;;2.10;;
4432;SDS011;2229;48.708;9.706;2023-07-08T05:04:05;4.57;;;2.23;;
4432;SDS011;2229;48.708;9.706;2023-07-08T05:06:34;5.63;;;2.73;;
4432;SDS011;2229;48.708;9.706;2023-07-08T05:09:02;5.00;;;2.23;;
4432;SDS011;2229;48.708;9.706;2023-07-08T05:11:30;4.87;;;2.00;;
4432;SDS011;2229;48.708;9.706;2023-07-08T05:13:58;9.33;;;3.30;;
4432;SDS011;2229;48.708;9.706;2023-07-08T05:16:25;4.83;;;1.90;;
4432;SDS011;2229;48.708;9.706;2023-07-08T05:18:52;7.00;;;3.20;;
4432;SDS011;2229;48.708;9.706;2023-07-08T05:21:22;3.10;;;1.90;;
4432;SDS011;2229;48.708;9.706;2023-07-08T05:23:53;8.40;;;2.60;;
4432;SDS011;2229;48.708;9.706;2023-07-08T05:26:20;6.30;;;2.53;;
4432;SDS011;2229;48.708;9.706;2023-07-08T05:28:47;4.57;;;2.00;;
4432;SDS011;2229;48.708;9.706;2023-07-08T05:31:14;5.53;;;2.43;;
4432;SDS011;2229;48.708;9.706;2023-07-08T05:33:41;4.13;;;1.80;;
4432;SDS011;2229;48.708;9.706;2023-07-08T05:36:09;6.40;;;2.57;;
4432;SDS011;2229;48.708;9.706;2023-07-08T05:38:37;4.30;;;2.10;;
4432;SDS011;2229;48.708;9.706;2023-07-08T05:41:04;5.40;;;2.17;;
4432;SDS011;2229;48.708;9.706;2023-07-08T05:43:32;6.90;;;2.23;;
4432;SDS011;2229;48.708;9.706;2023-07-08T05:45:59;4.30;;;2.27;;
4432;SDS011;2229;48.708;9.706;2023-07-08T05:48:28;5.00;;;2.60;;
4432;SDS011;2229;48.708;9.706;2023-07-08T05:50:55;5.83;;;2.13;;
4432;SDS011;2229;48.708;9.706;2023-07-08T05:53:22;7.70;;;2.47;;
4432;SDS011;2229;48.708;9.706;2023-07-08T05:55:51;7.60;;;2.50;;
4432;SDS011;2229;48.708;9.706;2023-07-08T05:58:18;4.17;;;1.80;;
4432;SDS011;2229;48.708;9.706;2023-07-08T06:00:45;7.33;;;3.00;;
4432;SDS011;2229;48.708;9.706;2023-07-08T06:03:12;4.07;;;2.53;;
4432;SDS011;2229;48.708;9.706;2023-07-08T06:05:39;7.17;;;2.80;;
4432;SDS011;2229;48.708;9.706;2023-07-08T06:08:07;8.27;;;2.27;;
4432;SDS011;2229;48.708;9.706;2023-07-08T06:10:34;4.60;;;2.97;;
4432;SDS011;2229;48.708;9.706;2023-07-08T06:13:03;3.87;;;1.80;;
4432;SDS011;2229;48.708;9.706;2023-07-08T06:15:30;6.93;;;2.60;;
4432;SDS011;2229;48.708;9.706;2023-07-08T06:17:57;5.40;;;2.63;;
4432;SDS011;2229;48.708;9.706;2023-07-08T06:20:27;6.27;;;2.63;;
4432;SDS011;2229;48.708;9.706;2023-07-08T06:22:55;10.50;;;3.20;;
4432;SDS011;2229;48.708;9.706;2023-07-08T06:25:22;6.93;;;2.20;;
4432;SDS011;2229;48.708;9.706;2023-07-08T06:27:50;5.37;;;2.30;;
4432;SDS011;2229;48.708;9.706;2023-07-08T06:30:18;4.47;;;1.90;;
4432;SDS011;2229;48.708;9.706;2023-07-08T06:32:46;6.30;;;3.20;;
4432;SDS011;2229;48.708;9.706;2023-07-08T06:35:14;4.80;;;2.40;;
4432;SDS011;2229;48.708;9.706;2023-07-08T06:37:41;5.53;;;2.67;;
4432;SDS011;2229;48.708;9.706;2023-07-08T06:40:08;7.40;;;2.80;;
4432;SDS011;2229;48.708;9.706;2023-07-08T06:42:36;6.53;;;3.20;;
4432;SDS011;2229;48.708;9.706;2023-07-08T06:45:14;5.80;;;2.50;;
4432;SDS011;2229;48.708;9.706;2023-07-08T06:47:43;6.43;;;2.37;;
4432;SDS011;2229;48.708;9.706;2023-07-08T06:50:11;12.43;;;2.73;;
4432;SDS011;2229;48.708;9.706;2023-07-08T06:52:38;5.87;;;2.60;;
4432;SDS011;2229;48.708;9.706;2023-07-08T06:55:06;9.20;;;3.03;;
4432;SDS011;2229;48.708;9.706;2023-07-08T06:57:35;6.97;;;2.73;;
4432;SDS011;2229;48.708;9.706;2023-07-08T07:00:04;6.93;;;2.80;;
4432;SDS011;2229;48.708;9.706;2023-07-08T07:02:32;7.27;;;2.80;;
4432;SDS011;2229;48.708;9.706;2023-07-08T07:05:01;5.90;;;2.70;;
4432;SDS011;2229;48.708;9.706;2023-07-08T07:07:30;4.23;;;2.33;;
4432;SDS011;2229;48.708;9.706;2023-07-08T07:09:57;4.53;;;2.10;;
4432;SDS011;2229;48.708;9.706;2023-07-08T07:12:24;4.70;;;2.00;;
4432;SDS011;2229;48.708;9.706;2023-07-08T07:14:52;4.60;;;2.40;;
4432;SDS011;2229;48.708;9.706;2023-07-08T07:17:20;8.43;;;3.63;;
4432;SDS011;2229;48.708;9.706;2023-07-08T07:19:47;5.10;;;2.40;;
4432;SDS011;2229;48.708;9.706;2023-07-08T07:22:16;5.97;;;2.37;;
4432;SDS011;2229;48.708;9.706;2023-07-08T07:24:43;3.80;;;1.90;;
4432;SDS011;2229;48.708;9.706;2023-07-08T07:27:10;4.40;;;1.50;;
4432;SDS011;2229;48.708;9.706;2023-07-08T07:29:40;6.43;;;3.23;;
4432;SDS011;2229;48.708;9.706;2023-07-08T07:32:08;4.73;;;1.90;;
4432;SDS011;2229;48.708;9.706;2023-07-08T07:34:35;5.53;;;2.47;;
4432;SDS011;2229;48.708;9.706;2023-07-08T07:37:03;4.67;;;2.90;;
4432;SDS011;2229;48.708;9.706;2023-07-08T07:39:33;4.80;;;1.53;;
4432;SDS011;2229;48.708;9.706;2023-07-08T07:42:00;5.83;;;2.47;;
4432;SDS011;2229;48.708;9.706;2023-07-08T07:44:28;3.97;;;2.10;;
4432;SDS011;2229;48.708;9.706;2023-07-08T07:46:55;6.60;;;2.90;;
4432;SDS011;2229;48.708;9.706;2023-07-08T07:49:22;5.10;;;2.70;;
4432;SDS011;2229;48.708;9.706;2023-07-08T07:51:50;4.00;;;1.97;;
4432;SDS011;2229;48.708;9.706;2023-07-08T07:54:17;5.77;;;2.20;;
4432;SDS011;2229;48.708;9.706;2023-07-08T07:56:45;7.57;;;2.30;;
4432;SDS011;2229;48.708;9.706;2023-07-08T07:59:13;4.37;;;2.23;;
4432;SDS011;2229;48.708;9.706;2023-07-08T08:01:40;6.07;;;2.57;;
4432;SDS011;2229;48.708;9.706;2023-07-08T08:04:08;6.70;;;2.70;;
4432;SDS011;2229;48.708;9.706;2023-07-08T08:06:37;6.00;;;2.80;;
4432;SDS011;2229;48.708;9.706;2023-07-08T08:09:04;4.03;;;1.73;;
4432;SDS011;2229;48.708;9.706;2023-07-08T08:11:32;5.57;;;2.23;;
4432;SDS011;2229;48.708;9.706;2023-07-08T08:14:01;9.47;;;2.43;;
4432;SDS011;2229;48.708;9.706;2023-07-08T08:16:29;3.73;;;1.73;;
4432;SDS011;2229;48.708;9.706;2023-07-08T08:18:57;3.80;;;2.13;;
4432;SDS011;2229;48.708;9.706;2023-07-08T08:21:24;3.87;;;1.63;;
4432;SDS011;2229;48.708;9.706;2023-07-08T08:23:52;3.47;;;1.57;;
4432;SDS011;2229;48.708;9.706;2023-07-08T08:26:19;5.17;;;1.80;;
4432;SDS011;2229;48.708;9.706;2023-07-08T08:28:46;5.43;;;1.63;;
4432;SDS011;2229;48.708;9.706;2023-07-08T08:31:15;4.97;;;2.27;;
4432;SDS011;2229;48.708;9.706;2023-07-08T08:33:42;4.37;;;1.80;;
4432;SDS011;2229;48.708;9.706;2023-07-08T08:36:10;5.00;;;2.10;;
4432;SDS011;2229;48.708;9.706;2023-07-08T08:38:37;3.20;;;1.03;;
4432;SDS011;2229;48.708;9.706;2023-07-08T08:41:04;5.47;;;2.40;;
4432;SDS011;2229;48.708;9.706;2023-07-08T08:43:38;4.13;;;1.97;;
4432;SDS011;2229;48.708;9.706;2023-07-08T08:46:08;6.10;;;2.37;;
4432;SDS011;2229;48.708;9.706;2023-07-08T08:48:43;4.57;;;1.50;;
4432;SDS011;2229;48.708;9.706;2023-07-08T08:51:18;5.90;;;2.33;;
4432;SDS011;2229;48.708;9.706;2023-07-08T08:53:46;4.20;;;1.60;;
4432;SDS011;2229;48.708;9.706;2023-07-08T08:56:15;3.20;;;1.83;;
4432;SDS011;2229;48.708;9.706;2023-07-08T08:58:49;5.53;;;1.90;;
4432;SDS011;2229;48.708;9.706;2023-07-08T09:01:23;5.33;;;2.03;;
4432;SDS011;2229;48.708;9.706;2023-07-08T09:03:52;9.03;;;2.80;;
4432;SDS011;2229;48.708;9.706;2023-07-08T09:06:24;4.47;;;1.60;;
4432;SDS011;2229;48.708;9.706;2023-07-08T09:08:52;4.13;;;2.10;;
4432;SDS011;2229;48.708;9.706;2023-07-08T09:11:25;4.40;;;1.93;;
4432;SDS011;2229;48.708;9.706;2023-07-08T09:14:10;5.17;;;2.03;;
4432;SDS011;2229;48.708;9.706;2023-07-08T09:16:44;4.43;;;1.63;;
4432;SDS011;2229;48.708;9.706;2023-07-08T09:19:21;5.00;;;1.60;;
4432;SDS011;2229;48.708;9.706;2023-07-08T09:21:55;2.33;;;1.10;;
4432;SDS011;2229;48.708;9.706;2023-07-08T09:24:28;5.40;;;1.97;;
4432;SDS011;2229;48.708;9.706;2023-07-08T09:26:59;2.60;;;1.47;;
4432;SDS011;2229;48.708;9.706;2023-07-08T09:29:28;4.90;;;1.73;;
4432;SDS011;2229;48.708;9.706;2023-07-08T09:31:55;3.40;;;1.90;;
4432;SDS011;2229;48.708;9.706;2023-07-08T09:34:37;3.33;;;1.53;;
4432;SDS011;2229;48.708;9.706;2023-07-08T09:37:18;2.77;;;1.87;;
4432;SDS011;2229;48.708;9.706;2023-07-08T09:39:49;4.93;;;1.80;;
4432;SDS011;2229;48.708;9.706;2023-07-08T09:42:17;3.17;;;1.50;;
4432;SDS011;2229;48.708;9.706;2023-07-08T09:44:45;3.10;;;1.47;;
4432;SDS011;2229;48.708;9.706;2023-07-08T09:47:20;3.17;;;1.10;;
4432;SDS011;2229;48.708;9.706;2023-07-08T09:49:50;2.73;;;1.47;;
4432;SDS011;2229;48.708;9.706;2023-07-08T09:52:19;2.63;;;1.20;;
4432;SDS011;2229;48.708;9.706;2023-07-08T09:54:46;3.90;;;2.07;;
4432;SDS011;2229;48.708;9.706;2023-07-08T09:57:18;3.80;;;1.53;;
4432;SDS011;2229;48.708;9.706;2023-07-08T09:59:52;3.87;;;1.60;;
4432;SDS011;2229;48.708;9.706;2023-07-08T10:02:30;4.57;;;1.10;;
4432;SDS011;2229;48.708;9.706;2023-07-08T10:05:01;4.43;;;1.60;;
4432;SDS011;2229;48.708;9.706;2023-07-08T10:07:34;11.47;;;2.60;;
4432;SDS011;2229;48.708;9.706;2023-07-08T10:10:03;3.83;;;1.40;;
4432;SDS011;2229;48.708;9.706;2023-07-08T10:12:36;2.27;;;1.03;;
4432;SDS011;2229;48.708;9.706;2023-07-08T10:15:07;5.90;;;1.00;;
4432;SDS011;2229;48.708;9.706;2023-07-08T10:17:41;4.80;;;1.90;;
4432;SDS011;2229;48.708;9.706;2023-07-08T10:20:12;7.40;;;1.40;;
4432;SDS011;2229;48.708;9.706;2023-07-08T10:22:41;5.27;;;2.20;;
4432;SDS011;2229;48.708;9.706;2023-07-08T10:25:22;3.87;;;1.63;;
4432;SDS011;2229;48.708;9.706;2023-07-08T10:27:57;4.20;;;1.97;;
4432;SDS011;2229;48.708;9.706;2023-07-08T10:30:30;4.70;;;1.73;;
4432;SDS011;2229;48.708;9.706;2023-07-08T10:36:15;2.27;;;0.90;;
4432;SDS011;2229;48.708;9.706;2023-07-08T10:38:50;5.73;;;1.77;;
4432;SDS011;2229;48.708;9.706;2023-07-08T10:41:37;2.93;;;1.40;;
4432;SDS011;2229;48.708;9.706;2023-07-08T10:44:16;3.47;;;1.20;;
4432;SDS011;2229;48.708;9.706;2023-07-08T10:46:52;2.83;;;1.10;;
4432;SDS011;2229;48.708;9.706;2023-07-08T10:49:28;5.33;;;1.63;;
4432;SDS011;2229;48.708;9.706;2023-07-08T10:52:12;5.20;;;1.87;;
4432;SDS011;2229;48.708;9.706;2023-07-08T10:54:59;3.57;;;1.20;;
4432;SDS011;2229;48.708;9.706;2023-07-08T10:57:49;3.40;;;1.87;;
4432;SDS011;2229;48.708;9.706;2023-07-08T11:00:40;3.87;;;1.70;;
4432;SDS011;2229;48.708;9.706;2023-07-08T11:06:15;5.23;;;1.90;;
4432;SDS011;2229;48.708;9.706;2023-07-08T11:08:47;5.13;;;1.43;;
4432;SDS011;2229;48.708;9.706;2023-07-08T11:11:25;3.40;;;1.20;;
4432;SDS011;2229;48.708;9.706;2023-07-08T11:13:58;1.97;;;1.07;;
4432;SDS011;2229;48.708;9.706;2023-07-08T11:16:30;2.33;;;1.13;;
4432;SDS011;2229;48.708;9.706;2023-07-08T11:19:02;2.80;;;1.17;;
4432;SDS011;2229;48.708;9.706;2023-07-08T11:21:35;2.30;;;1.00;;
4432;SDS011;2229;48.708;9.706;2023-07-08T11:24:10;2.13;;;0.80;;
4432;SDS011;2229;48.708;9.706;2023-07-08T11:26:42;2.23;;;1.03;;
4432;SDS011;2229;48.708;9.706;2023-07-08T11:29:14;1.57;;;0.80;;
4432;SDS011;2229;48.708;9.706;2023-07-08T11:31:45;3.10;;;1.47;;
4432;SDS011;2229;48.708;9.706;2023-07-08T11:34:14;4.63;;;1.20;;
4432;SDS011;2229;48.708;9.706;2023-07-08T11:36:43;2.20;;;1.10;;
4432;SDS011;2229;48.708;9.706;2023-07-08T11:39:31;2.03;;;1.20;;
4432;SDS011;2229;48.708;9.706;2023-07-08T11:42:04;1.60;;;0.90;;
4432;SDS011;2229;48.708;9.706;2023-07-08T11:44:41;1.60;;;0.80;;
4432;SDS011;2229;48.708;9.706;2023-07-08T11:47:15;1.80;;;0.90;;
4432;SDS011;2229;48.708;9.706;2023-07-08T11:49:45;1.93;;;0.87;;
4432;SDS011;2229;48.708;9.706;2023-07-08T11:52:16;1.97;;;1.00;;
4432;SDS011;2229;48.708;9.706;2023-07-08T11:54:47;4.83;;;0.90;;
4432;SDS011;2229;48.708;9.706;2023-07-08T11:57:17;4.00;;;0.90;;
4432;SDS011;2229;48.708;9.706;2023-07-08T11:59:45;1.97;;;0.80;;
4432;SDS011;2229;48.708;9.706;2023-07-08T12:02:13;1.30;;;0.70;;
4432;SDS011;2229;48.708;9.706;2023-07-08T12:04:53;1.70;;;0.93;;
4432;SDS011;2229;48.708;9.706;2023-07-08T12:07:33;2.13;;;0.87;;
4432;SDS011;2229;48.708;9.706;2023-07-08T12:10:11;2.60;;;0.70;;
4432;SDS011;2229;48.708;9.706;2023-07-08T12:12:42;1.60;;;0.87;;
4432;SDS011;2229;48.708;9.706;2023-07-08T12:15:12;2.27;;;1.17;;
4432;SDS011;2229;48.708;9.706;2023-07-08T12:17:44;2.77;;;1.10;;
4432;SDS011;2229;48.708;9.706;2023-07-08T12:20:16;1.70;;;0.77;;
4432;SDS011;2229;48.708;9.706;2023-07-08T12:22:46;2.07;;;1.07;;
4432;SDS011;2229;48.708;9.706;2023-07-08T12:25:17;1.67;;;0.77;;
4432;SDS011;2229;48.708;9.706;2023-07-08T12:27:47;2.77;;;1.27;;
4432;SDS011;2229;48.708;9.706;2023-07-08T12:30:17;2.13;;;0.97;;
4432;SDS011;2229;48.708;9.706;2023-07-08T12:32:45;1.80;;;1.07;;
4432;SDS011;2229;48.708;9.706;2023-07-08T12:35:18;1.63;;;0.80;;
4432;SDS011;2229;48.708;9.706;2023-07-08T12:37:50;4.00;;;1.27;;
4432;SDS011;2229;48.708;9.706;2023-07-08T12:40:20;2.70;;;0.80;;
4432;SDS011;2229;48.708;9.706;2023-07-08T12:42:48;1.73;;;0.97;;
4432;SDS011;2229;48.708;9.706;2023-07-08T12:45:16;1.60;;;0.70;;
4432;SDS011;2229;48.708;9.706;2023-07-08T12:47:47;1.63;;;0.97;;
4432;SDS011;2229;48.708;9.706;2023-07-08T12:50:15;1.60;;;0.77;;
4432;SDS011;2229;48.708;9.706;2023-07-08T12:52:43;1.70;;;0.70;;
4432;SDS011;2229;48.708;9.706;2023-07-08T12:55:11;3.20;;;1.20;;
4432;SDS011;2229;48.708;9.706;2023-07-08T12:57:42;3.77;;;1.83;;
4432;SDS011;2229;48.708;9.706;2023-07-08T13:00:12;2.33;;;1.10;;
4432;SDS011;2229;48.708;9.706;2023-07-08T13:02:44;2.17;;;0.90;;
4432;SDS011;2229;48.708;9.706;2023-07-08T13:05:13;1.93;;;0.77;;
4432;SDS011;2229;48.708;9.706;2023-07-08T13:07:42;1.93;;;0.80;;
4432;SDS011;2229;48.708;9.706;2023-07-08T13:10:16;1.70;;;1.00;;
4432;SDS011;2229;48.708;9.706;2023-07-08T13:12:48;2.10;;;0.83;;
4432;SDS011;2229;48.708;9.706;2023-07-08T13:15:20;2.13;;;1.27;;
4432;SDS011;2229;48.708;9.706;2023-07-08T13:17:49;2.70;;;1.53;;
4432;SDS011;2229;48.708;9.706;2023-07-08T13:20:17;2.70;;;1.10;;
4432;SDS011;2229;48.708;9.706;2023-07-08T13:22:49;1.80;;;0.87;;
4432;SDS011;2229;48.708;9.706;2023-07-08T13:25:20;2.33;;;1.50;;
4432;SDS011;2229;48.708;9.706;2023-07-08T13:27:55;1.70;;;0.87;;
4432;SDS011;2229;48.708;9.706;2023-07-08T13:30:26;1.67;;;1.00;;
4432;SDS011;2229;48.708;9.706;2023-07-08T13:32:54;3.10;;;1.17;;
4432;SDS011;2229;48.708;9.706;2023-07-08T13:35:25;2.10;;;0.87;;
4432;SDS011;2229;48.708;9.706;2023-07-08T13:38:00;1.73;;;0.77;;
4432;SDS011;2229;48.708;9.706;2023-07-08T13:40:28;2.03;;;1.10;;
4432;SDS011;2229;48.708;9.706;2023-07-08T13:42:58;1.60;;;0.90;;
4432;SDS011;2229;48.708;9.706;2023-07-08T13:45:27;1.87;;;0.90;;
4432;SDS011;2229;48.708;9.706;2023-07-08T13:47:59;1.27;;;0.67;;
4432;SDS011;2229;48.708;9.706;2023-07-08T13:50:39;2.40;;;1.20;;
4432;SDS011;2229;48.708;9.706;2023-07-08T13:53:19;2.80;;;1.20;;
4432;SDS011;2229;48.708;9.706;2023-07-08T13:55:48;2.60;;;1.20;;
4432;SDS011;2229;48.708;9.706;2023-07-08T13:58:25;3.27;;;1.47;;
4432;SDS011;2229;48.708;9.706;2023-07-08T14:00:54;2.00;;;0.90;;
4432;SDS011;2229;48.708;9.706;2023-07-08T14:03:24;4.90;;;0.90;;
4432;SDS011;2229;48.708;9.706;2023-07-08T14:05:52;2.17;;;1.10;;
4432;SDS011;2229;48.708;9.706;2023-07-08T14:08:19;1.67;;;0.90;;
4432;SDS011;2229;48.708;9.706;2023-07-08T14:10:47;1.80;;;0.90;;
4432;SDS011;2229;48.708;9.706;2023-07-08T14:13:15;1.90;;;1.03;;
4432;SDS011;2229;48.708;9.706;2023-07-08T14:15:44;2.07;;;1.03;;
4432;SDS011;2229;48.708;9.706;2023-07-08T14:18:11;4.30;;;1.53;;
4432;SDS011;2229;48.708;9.706;2023-07-08T14:20:39;2.40;;;1.40;;
4432;SDS011;2229;48.708;9.706;2023-07-08T14:23:08;1.97;;;1.13;;
4432;SDS011;2229;48.708;9.706;2023-07-08T14:25:38;3.70;;;1.50;;
4432;SDS011;2229;48.708;9.706;2023-07-08T14:28:06;3.37;;;0.90;;
4432;SDS011;2229;48.708;9.706;2023-07-08T14:30:33;1.80;;;0.93;;
4432;SDS011;2229;48.708;9.706;2023-07-08T14:33:09;3.00;;;1.20;;
4432;SDS011;2229;48.708;9.706;2023-07-08T14:35:38;2.90;;;1.13;;
4432;SDS011;2229;48.708;9.706;2023-07-08T14:38:08;1.93;;;0.80;;
4432;SDS011;2229;48.708;9.706;2023-07-08T14:40:37;2.20;;;0.90;;
4432;SDS011;2229;48.708;9.706;2023-07-08T14:43:07;2.40;;;0.80;;
4432;SDS011;2229;48.708;9.706;2023-07-08T14:45:40;2.17;;;1.00;;
4432;SDS011;2229;48.708;9.706;2023-07-08T14:48:11;4.80;;;1.33;;
4432;SDS011;2229;48.708;9.706;2023-07-08T14:50:39;2.27;;;1.00;;
4432;SDS011;2229;48.708;9.706;2023-07-08T14:53:06;4.37;;;1.50;;
4432;SDS011;2229;48.708;9.706;2023-07-08T14:55:35;3.27;;;1.10;;
4432;SDS011;2229;48.708;9.706;2023-07-08T14:58:03;2.60;;;1.27;;
4432;SDS011;2229;48.708;9.706;2023-07-08T15:00:31;2.23;;;1.10;;
4432;SDS011;2229;48.708;9.706;2023-07-08T15:02:58;1.77;;;0.83;;
4432;SDS011;2229;48.708;9.706;2023-07-08T15:05:27;2.13;;;0.90;;
4432;SDS011;2229;48.708;9.706;2023-07-08T15:07:55;3.80;;;1.43;;
4432;SDS011;2229;48.708;9.706;2023-07-08T15:10:28;2.87;;;1.33;;
4432;SDS011;2229;48.708;9.706;2023-07-08T15:12:56;3.00;;;1.00;;
4432;SDS011;2229;48.708;9.706;2023-07-08T15:15:26;1.73;;;0.80;;
4432;SDS011;2229;48.708;9.706;2023-07-08T15:17:55;1.77;;;1.20;;
4432;SDS011;2229;48.708;9.706;2023-07-08T15:20:24;3.70;;;1.00;;
4432;SDS011;2229;48.708;9.706;2023-07-08T15:22:53;4.97;;;3.77;;
4432;SDS011;2229;48.708;9.706;2023-07-08T15:25:20;2.67;;;1.20;;
4432;SDS011;2229;48.708;9.706;2023-07-08T15:27:48;1.40;;;0.77;;
4432;SDS011;2229;48.708;9.706;2023-07-08T15:30:18;2.33;;;1.20;;
4432;SDS011;2229;48.708;9.706;2023-07-08T15:32:47;3.10;;;1.40;;
4432;SDS011;2229;48.708;9.706;2023-07-08T15:35:15;2.73;;;1.00;;
4432;SDS011;2229;48.708;9.706;2023-07-08T15:37:44;2.20;;;0.77;;
4432;SDS011;2229;48.708;9.706;2023-07-08T15:40:15;2.00;;;0.83;;